Dauntless Aviation
Greetings, Guest! To participate, [sign up for a free account] or [log in]
Airports Europe Germany
EDSW

Altdorf-Wallburg

Altdorf-Wallburg, GERMANY

Airport Info
Edit

Location

Latitude / Longitude: 48°16'11"N / 7°50'31"E
  48°16.188'N / 7°50.532'E
  48.2698 / 7.8422
Satellite photo at:
Airport distance calculator
From:
Weather Reports

METAR

EDTL
5.8nm NW
EDTL 031150Z 02005KT 340V060 CAVOK 34/16 Q1022
LFST
18.2nm NW
LFST 031200Z AUTO VRB03KT CAVOK 35/18 Q1022
EDSB
32.3nm N
EDSB 031150Z 01008KT CAVOK 34/14 Q1022

TAF

EDTL
5.8nm NW
TAF EDTL 031100Z 0312/0321 02005KT CAVOK TEMPO 0312/0317 VRB03KT PROB30 TEMPO 0314/0318 TSRA SCT040CB
LFST
18.2nm NW
TAF LFST 031100Z 0312/0412 VRB03KT CAVOK BECMG 0312/0315 18007KT TEMPO 0315/0318 FEW070CB PROB30 TEMPO 0315/0319 VRB15G25KT TS FEW070CB
EDSB
32.3nm N
TAF EDSB 031100Z 0312/0412 02005KT CAVOK TEMPO 0312/0316 VRB03KT PROB30 TEMPO 0314/0318 TSRA SCT040CB BECMG 0402/0405 20005KT
Safelog

 

Dauntless Aviation

© 2007-2015 Dauntless Aviation, all rights reserved
Information provided via PilotNav comes from a variety of official and unofficial data sources. As errors are possible, do not use PilotNav for primary flight planning purposes. Verify any information that you receive via PilotNav with current and canonical charts and other official documents. The material in this database is subject to database copyrights held by Dauntless Aviation and may not be copied without the express permission of Dauntless Aviation - licenses for use of part of all of this data are available for purchase; enquire via the Dauntless Aviation helpdesk. A number of mechanisms and markers exist in the database to protect against and identify infringement / copyright. Automated queries against this website are stictly prohibited, and all activity is logged and analyzed.